Time;durP1;ratioP1;P1;durP2;ratioP2;P2;SDS_P1;SDS_P2;PMS_P1;PMS_P2;Temp;Humidity;BMP_temperature;BMP_pressure;BME280_temperature;BME280_humidity;BME280_pressure;Samples;Min_cycle;Max_cycle;Signal;HPM_P1;HPM_P2
2023/04/11 00:01:07;;;;;;;;;;;;;;;;;;5010572;28;19910;-42
2023/04/11 05:08:05;;;;;;;;;;;;;;;;;;5004858;28;19920;-41
2023/04/11 05:10:31;;;;;;;;;;;;;;;;;;5010150;28;19909;-42
2023/04/11 05:12:57;;;;;;;;;;;;;;;;;;5013818;28;19909;-42
2023/04/11 05:15:24;;;;;;;;;;;;;;;;;;5016326;28;19913;-42
2023/04/11 05:17:50;;;;;;;;;;;;;;;;;;5010512;28;19909;-40
2023/04/11 05:20:16;;;;;;;;;;;;;;;;;;5010510;28;19940;-42
2023/04/11 05:22:43;;;;;;;;;;;;;;;;;;5009849;28;20000;-43
2023/04/11 05:25:10;;;;;;;;;;;;;;;;;;5014130;28;19971;-42
2023/04/11 05:27:36;;;;;;;;;;;;;;;;;;5030190;28;19905;-42
2023/04/11 05:30:03;;;;;;;;;;;;;;;;;;5011874;28;20475;-45
2023/04/11 05:32:29;;;;;;;;;;;;;;;;;;5009970;28;19914;-43
2023/04/11 05:34:55;;;;;;;;;;;;;;;;;;5009881;28;19917;-43
2023/04/11 05:37:21;;;;;;;;;;;;;;;;;;5006535;28;19994;-43
2023/04/11 05:39:46;;;;;;;;;;;;;;;;;;5009774;28;19916;-43
2023/04/11 05:42:12;;;;;;;;;;;;;;;;;;5009663;28;19909;-43
2023/04/11 05:44:39;;;;;;;;;;;;;;;;;;5007162;28;19909;-43
2023/04/11 05:47:05;;;;;;;;;;;;;;;;;;5008652;28;19910;-44
2023/04/11 05:49:31;;;;;;;;;;;;;;;;;;5008842;28;20265;-42
2023/04/11 05:51:56;;;;;;;;;;;;;;;;;;5008348;28;20372;-44
2023/04/11 05:54:22;;;;;;;;;;;;;;;;;;5009097;28;19909;-43
2023/04/11 05:56:48;;;;;;;;;;;;;;;;;;5009899;28;19912;-43
2023/04/11 05:59:14;;;;;;;;;;;;;;;;;;5009644;28;19915;-43
2023/04/11 06:01:41;;;;;;;;;;;;;;;;;;5009639;28;19905;-44
2023/04/11 06:04:07;;;;;;;;;;;;;;;;;;5006203;28;19979;-45
2023/04/11 06:06:34;;;;;;;;;;;;;;;;;;4997061;28;19910;-44
2023/04/11 06:09:00;;;;;;;;;;;;;;;;;;4990026;28;19921;-43
2023/04/11 06:11:26;;;;;;;;;;;;;;;;;;4990123;28;19910;-43
2023/04/11 06:13:53;;;;;;;;;;;;;;;;;;5008586;28;19992;-43
2023/04/11 06:16:19;;;;;;;;;;;;;;;;;;5008580;28;19917;-43
2023/04/11 06:18:45;;;;;;;;;;;;;;;;;;5011852;28;19927;-42
2023/04/11 06:21:11;;;;;;;;;;;;;;;;;;5009487;28;19917;-42
2023/04/11 06:23:37;;;;;;;;;;;;;;;;;;5009140;28;20009;-44
2023/04/11 06:26:03;;;;;;;;;;;;;;;;;;5009368;28;19963;-45
2023/04/11 06:28:29;;;;;;;;;;;;;;;;;;5008557;28;19910;-44
2023/04/11 06:30:55;;;;;;;;;;;;;;;;;;5010159;28;19916;-42
2023/04/11 06:33:21;;;;;;;;;;;;;;;;;;5010440;28;19906;-42
2023/04/11 06:35:46;;;;;;;;;;;;;;;;;;5010462;28;19909;-43
2023/04/11 06:38:12;;;;;;;;;;;;;;;;;;5010490;28;19909;-46
2023/04/11 06:40:38;;;;;;;;;;;;;;;;;;5010562;28;19910;-46
2023/04/11 06:43:04;;;;;;;;;;;;;;;;;;5007468;28;20008;-43
2023/04/11 06:45:30;;;;;;;;;;;;;;;;;;5009137;28;19932;-43
2023/04/11 06:47:56;;;;;;;;;;;;;;;;;;5010126;28;19910;-43
2023/04/11 06:50:22;;;;;;;;;;;;;;;;;;5010157;28;19905;-43
2023/04/11 06:52:48;;;;;;;;;;;;;;;;;;5010381;28;19928;-45
2023/04/11 06:55:14;;;;;;;;;;;;;;;;;;5024170;28;20303;-43
2023/04/11 06:57:40;;;;;;;;;;;;;;;;;;5029361;28;19909;-44
2023/04/11 07:00:06;;;;;;;;;;;;;;;;;;5029799;28;19908;-42
2023/04/11 07:02:34;;;;;;;;;;;;;;;;;;5028119;28;20004;-43
2023/04/11 07:05:00;;;;;;;;;;;;;;;;;;5019657;28;19948;-44
2023/04/11 07:07:26;;;;;;;;;;;;;;;;;;4995500;28;19992;-42
2023/04/11 07:09:52;;;;;;;;;;;;;;;;;;4990517;28;20299;-43
2023/04/11 07:12:18;;;;;;;;;;;;;;;;;;4996298;28;19906;-44
2023/04/11 07:14:44;;;;;;;;;;;;;;;;;;5009643;28;19913;-44
2023/04/11 07:17:10;;;;;;;;;;;;;;;;;;5008793;28;19936;-46
2023/04/11 07:19:36;;;;;;;;;;;;;;;;;;5009835;28;20348;-44
2023/04/11 07:22:02;;;;;;;;;;;;;;;;;;5008518;28;19905;-43
2023/04/11 07:24:29;;;;;;;;;;;;;;;;;;5010013;28;19928;-44
2023/04/11 07:26:57;;;;;;;;;;;;;;;;;;5009670;28;19909;-46
2023/04/11 07:29:24;;;;;;;;;;;;;;;;;;5009541;28;19952;-42
2023/04/11 07:31:50;;;;;;;;;;;;;;;;;;5012778;28;19909;-43
2023/04/11 07:34:16;;;;;;;;;;;;;;;;;;5013734;28;19920;-42
2023/04/11 07:36:42;;;;;;;;;;;;;;;;;;5013733;28;19912;-44
2023/04/11 07:39:11;;;;;;;;;;;;;;;;;;5013625;28;19909;-43
2023/04/11 07:41:37;;;;;;;;;;;;;;;;;;5013456;28;19913;-46
2023/04/11 07:44:03;;;;;;;;;;;;;;;;;;5013389;28;20380;-43
2023/04/11 07:46:29;;;;;;;;;;;;;;;;;;5013293;28;19983;-44
2023/04/11 07:48:55;;;;;;;;;;;;;;;;;;5020818;28;20387;-42
2023/04/11 07:51:21;;;;;;;;;;;;;;;;;;5033346;28;19932;-43
2023/04/11 07:53:46;;;;;;;;;;;;;;;;;;5033283;28;19905;-44
2023/04/11 07:56:12;;;;;;;;;;;;;;;;;;5032948;28;19983;-44
2023/04/11 07:58:38;;;;;;;;;;;;;;;;;;5032821;28;19959;-44
2023/04/11 08:01:04;;;;;;;;;;;;;;;;;;5025239;28;19905;-43
2023/04/11 08:03:31;;;;;;;;;;;;;;;;;;5011036;28;19913;-46
2023/04/11 08:05:57;;;;;;;;;;;;;;;;;;5011998;28;19906;-44
2023/04/11 08:08:23;;;;;;;;;;;;;;;;;;5011233;28;19932;-44
2023/04/11 08:10:49;;;;;;;;;;;;;;;;;;5013073;28;19951;-43
2023/04/11 08:13:15;;;;;;;;;;;;;;;;;;5012815;28;19909;-43
2023/04/11 08:15:41;;;;;;;;;;;;;;;;;;5000107;28;19914;-43
2023/04/11 08:18:07;;;;;;;;;;;;;;;;;;4993060;28;19906;-43
2023/04/11 08:20:33;;;;;;;;;;;;;;;;;;4993187;28;19975;-43
2023/04/11 08:23:04;;;;;;;;;;;;;;;;;;4993176;28;19910;-45
2023/04/11 08:25:31;;;;;;;;;;;;;;;;;;4993084;28;20000;-44
2023/04/11 08:27:57;;;;;;;;;;;;;;;;;;5006786;28;19906;-45
2023/04/11 08:30:23;;;;;;;;;;;;;;;;;;5011489;28;19912;-44
2023/04/11 08:32:49;;;;;;;;;;;;;;;;;;5011978;28;19920;-44
2023/04/11 08:35:16;;;;;;;;;;;;;;;;;;5011164;28;19917;-45
2023/04/11 08:37:43;;;;;;;;;;;;;;;;;;5011251;28;19909;-43
2023/04/11 08:40:10;;;;;;;;;;;;;;;;;;5011363;28;19905;-42
2023/04/11 08:42:36;;;;;;;;;;;;;;;;;;5011209;28;19910;-44
2023/04/11 08:45:02;;;;;;;;;;;;;;;;;;5011228;28;19905;-43
2023/04/11 08:47:28;;;;;;;;;;;;;;;;;;5011146;28;19912;-42
2023/04/11 08:49:55;;;;;;;;;;;;;;;;;;5010778;28;19913;-46
2023/04/11 08:52:22;;;;;;;;;;;;;;;;;;5011195;28;19917;-44
2023/04/11 08:54:48;;;;;;;;;;;;;;;;;;5011214;28;19913;-44
2023/04/11 08:57:15;;;;;;;;;;;;;;;;;;5010769;28;20483;-44
2023/04/11 08:59:40;;;;;;;;;;;;;;;;;;5012664;28;19913;-44
2023/04/11 09:02:09;;;;;;;;;;;;;;;;;;5012859;28;19920;-43
2023/04/11 09:04:35;;;;;;;;;;;;;;;;;;5018724;28;20399;-43
2023/04/11 09:07:02;;;;;;;;;;;;;;;;;;5010594;28;19917;-45
2023/04/11 09:09:29;;;;;;;;;;;;;;;;;;5004384;28;19913;-47
2023/04/11 09:11:55;;;;;;;;;;;;;;;;;;5011445;28;19925;-43
2023/04/11 09:14:21;;;;;;;;;;;;;;;;;;5021627;28;20399;-45
2023/04/11 09:16:47;;;;;;;;;;;;;;;;;;4994996;28;19910;-45
2023/04/11 09:19:13;;;;;;;;;;;;;;;;;;5026521;28;20003;-44
2023/04/11 09:21:39;;;;;;;;;;;;;;;;;;5010276;28;19905;-43
2023/04/11 09:24:05;;;;;;;;;;;;;;;;;;5016344;28;19909;-45
2023/04/11 09:26:31;;;;;;;;;;;;;;;;;;5010332;28;19936;-43
2023/04/11 09:28:57;;;;;;;;;;;;;;;;;;5023807;28;20358;-45
2023/04/11 09:31:23;;;;;;;;;;;;;;;;;;5011947;28;19909;-45
2023/04/11 09:33:50;;;;;;;;;;;;;;;;;;5010633;28;19916;-45
2023/04/11 09:36:16;;;;;;;;;;;;;;;;;;5012060;28;19913;-44
2023/04/11 09:38:43;;;;;;;;;;;;;;;;;;5011546;28;20439;-43
2023/04/11 09:41:08;;;;;;;;;;;;;;;;;;5009753;28;19920;-46
2023/04/11 09:43:34;;;;;;;;;;;;;;;;;;5013711;28;19909;-45
2023/04/11 09:46:00;;;;;;;;;;;;;;;;;;5011903;28;20007;-44
2023/04/11 09:48:26;;;;;;;;;;;;;;;;;;5019993;28;19991;-44
2023/04/11 09:50:53;;;;;;;;;;;;;;;;;;5008964;28;19910;-43
2023/04/11 09:53:19;;;;;;;;;;;;;;;;;;5020328;28;19948;-42
2023/04/11 09:55:45;;;;;;;;;;;;;;;;;;5010635;28;20392;-45
2023/04/11 09:58:11;;;;;;;;;;;;;;;;;;5011055;28;20293;-43
2023/04/11 10:00:37;;;;;;;;;;;;;;;;;;5011455;28;20431;-44
2023/04/11 10:03:03;;;;;;;;;;;;;;;;;;5016227;28;19916;-44
2023/04/11 10:05:30;;;;;;;;;;;;;;;;;;5013248;28;20376;-45
2023/04/11 10:07:56;;;;;;;;;;;;;;;;;;5008568;28;19918;-44
2023/04/11 10:10:22;;;;;;;;;;;;;;;;;;5008862;28;20439;-44
2023/04/11 10:12:48;;;;;;;;;;;;;;;;;;5002784;28;19955;-46
2023/04/11 10:15:14;;;;;;;;;;;;;;;;;;5008631;28;19953;-44
2023/04/11 10:17:40;;;;;;;;;;;;;;;;;;5015744;28;19913;-44
2023/04/11 10:20:06;;;;;;;;;;;;;;;;;;5013326;28;20384;-43
2023/04/11 10:22:32;;;;;;;;;;;;;;;;;;5006043;28;19910;-45
2023/04/11 10:24:59;;;;;;;;;;;;;;;;;;5016769;28;19910;-45
2023/04/11 10:27:25;;;;;;;;;;;;;;;;;;5013620;28;19956;-46
2023/04/11 10:29:51;;;;;;;;;;;;;;;;;;5017731;28;20230;-43
2023/04/11 10:32:18;;;;;;;;;;;;;;;;;;5012291;28;19956;-43
2023/04/11 10:34:44;;;;;;;;;;;;;;;;;;5014331;28;19968;-42
2023/04/11 10:37:11;;;;;;;;;;;;;;;;;;5012481;28;19940;-45
2023/04/11 10:39:37;;;;;;;;;;;;;;;;;;5014128;28;19959;-44
2023/04/11 10:42:03;;;;;;;;;;;;;;;;;;5011207;28;20314;-42
2023/04/11 10:44:29;;;;;;;;;;;;;;;;;;5017738;28;19909;-44
2023/04/11 10:46:55;;;;;;;;;;;;;;;;;;5009010;28;19916;-41
2023/04/11 10:49:21;;;;;;;;;;;;;;;;;;5014689;28;20320;-42
2023/04/11 10:51:47;;;;;;;;;;;;;;;;;;5008508;28;19986;-42
2023/04/11 10:54:12;;;;;;;;;;;;;;;;;;5012259;28;19975;-42
2023/04/11 10:56:38;;;;;;;;;;;;;;;;;;5008051;28;19909;-42
2023/04/11 10:59:04;;;;;;;;;;;;;;;;;;5014715;28;19909;-44
2023/04/11 11:01:30;;;;;;;;;;;;;;;;;;5007460;28;19912;-43
2023/04/11 11:03:56;;;;;;;;;;;;;;;;;;5017687;28;20008;-43
2023/04/11 11:06:22;;;;;;;;;;;;;;;;;;5011621;28;19919;-43
2023/04/11 11:08:48;;;;;;;;;;;;;;;;;;5010358;28;19917;-43
2023/04/11 11:11:15;;;;;;;;;;;;;;;;;;5009074;28;19909;-43
2023/04/11 11:13:42;;;;;;;;;;;;;;;;;;5011801;28;19944;-46
2023/04/11 11:16:07;;;;;;;;;;;;;;;;;;5011131;28;20038;-45
2023/04/11 11:18:33;;;;;;;;;;;;;;;;;;5011398;28;20384;-42
2023/04/11 11:20:59;;;;;;;;;;;;;;;;;;5011319;28;19914;-42
2023/04/11 11:23:26;;;;;;;;;;;;;;;;;;5011463;28;20377;-43
2023/04/11 11:25:53;;;;;;;;;;;;;;;;;;5011297;28;19913;-45
2023/04/11 11:28:19;;;;;;;;;;;;;;;;;;5011589;28;20002;-46
2023/04/11 11:30:46;;;;;;;;;;;;;;;;;;5011338;28;19936;-44
2023/04/11 11:33:13;;;;;;;;;;;;;;;;;;5011425;28;19941;-44
2023/04/11 11:35:40;;;;;;;;;;;;;;;;;;5011092;28;19928;-44
2023/04/11 11:38:06;;;;;;;;;;;;;;;;;;5011239;28;19909;-44
2023/04/11 11:40:33;;;;;;;;;;;;;;;;;;5011400;28;20428;-42
2023/04/11 11:43:00;;;;;;;;;;;;;;;;;;5011224;28;19952;-42
2023/04/11 11:45:26;;;;;;;;;;;;;;;;;;5010959;28;19953;-42
2023/04/11 11:47:52;;;;;;;;;;;;;;;;;;5009869;28;19967;-41
2023/04/11 11:50:18;;;;;;;;;;;;;;;;;;5011548;28;19909;-43
2023/04/11 11:52:43;;;;;;;;;;;;;;;;;;5011099;28;20646;-48
2023/04/11 11:55:09;;;;;;;;;;;;;;;;;;5010666;28;20015;-44
2023/04/11 11:57:35;;;;;;;;;;;;;;;;;;5010888;28;19906;-48
2023/04/11 12:00:04;;;;;;;;;;;;;;;;;;5010738;28;19906;-44
2023/04/11 12:02:30;;;;;;;;;;;;;;;;;;5010810;28;19909;-45
2023/04/11 12:04:58;;;;;;;;;;;;;;;;;;5010630;28;19916;-42
2023/04/11 12:07:24;;;;;;;;;;;;;;;;;;5010695;28;19967;-45
2023/04/11 12:09:50;;;;;;;;;;;;;;;;;;5004008;28;20415;-42
2023/04/11 12:12:16;;;;;;;;;;;;;;;;;;4997482;28;19917;-43
2023/04/11 12:14:42;;;;;;;;;;;;;;;;;;5010462;28;20244;-44
2023/04/11 12:17:08;;;;;;;;;;;;;;;;;;5010091;28;20315;-44
2023/04/11 12:19:34;;;;;;;;;;;;;;;;;;5010687;28;19984;-43
2023/04/11 12:22:00;;;;;;;;;;;;;;;;;;5010484;28;19941;-42
2023/04/11 12:24:26;;;;;;;;;;;;;;;;;;4999796;28;19960;-43
2023/04/11 12:26:53;;;;;;;;;;;;;;;;;;5010375;28;19917;-41
2023/04/11 12:29:20;;;;;;;;;;;;;;;;;;5010374;28;20384;-41
2023/04/11 12:31:46;;;;;;;;;;;;;;;;;;5010156;28;19909;-46
2023/04/11 12:34:12;;;;;;;;;;;;;;;;;;5010107;28;20027;-43
2023/04/11 12:36:38;;;;;;;;;;;;;;;;;;5009834;28;19913;-43
2023/04/11 12:39:04;;;;;;;;;;;;;;;;;;5009696;28;19905;-44
2023/04/11 12:41:30;;;;;;;;;;;;;;;;;;5009892;28;19913;-43
2023/04/11 12:43:56;;;;;;;;;;;;;;;;;;5009605;28;20059;-43
2023/04/11 12:46:22;;;;;;;;;;;;;;;;;;5010410;28;19909;-43
2023/04/11 12:48:48;;;;;;;;;;;;;;;;;;5009986;28;19913;-45
2023/04/11 12:51:15;;;;;;;;;;;;;;;;;;5009805;28;19909;-43
2023/04/11 12:53:41;;;;;;;;;;;;;;;;;;5005866;28;19912;-42
2023/04/11 12:56:08;;;;;;;;;;;;;;;;;;4999074;28;19917;-46
2023/04/11 12:58:34;;;;;;;;;;;;;;;;;;5009588;28;19916;-42
2023/04/11 13:01:00;;;;;;;;;;;;;;;;;;5009365;28;19905;-43
2023/04/11 13:03:27;;;;;;;;;;;;;;;;;;5008815;28;20384;-43
2023/04/11 13:05:53;;;;;;;;;;;;;;;;;;5008159;28;19909;-45
2023/04/11 13:08:20;;;;;;;;;;;;;;;;;;5007486;28;20438;-43
2023/04/11 13:10:45;;;;;;;;;;;;;;;;;;5007437;28;19905;-42
2023/04/11 13:13:11;;;;;;;;;;;;;;;;;;5007767;28;19912;-42
2023/04/11 13:15:37;;;;;;;;;;;;;;;;;;5007437;28;20419;-41
2023/04/11 13:18:03;;;;;;;;;;;;;;;;;;5008138;28;19931;-43
2023/04/11 13:20:31;;;;;;;;;;;;;;;;;;5007405;28;19917;-43
2023/04/11 13:22:57;;;;;;;;;;;;;;;;;;5007493;28;19914;-42
2023/04/11 13:25:23;;;;;;;;;;;;;;;;;;5007277;28;19916;-43
2023/04/11 13:27:49;;;;;;;;;;;;;;;;;;5006536;28;19996;-46
2023/04/11 13:30:15;;;;;;;;;;;;;;;;;;5007385;28;19909;-43
2023/04/11 13:32:40;;;;;;;;;;;;;;;;;;5007389;28;20441;-43
2023/04/11 13:35:07;;;;;;;;;;;;;;;;;;5006991;28;20285;-45
2023/04/11 13:37:32;;;;;;;;;;;;;;;;;;5006263;28;19913;-45
2023/04/11 13:39:58;;;;;;;;;;;;;;;;;;5006912;28;19916;-45
2023/04/11 13:42:24;;;;;;;;;;;;;;;;;;5007226;28;20408;-46
2023/04/11 13:44:51;;;;;;;;;;;;;;;;;;5007082;28;20384;-45
2023/04/11 13:47:17;;;;;;;;;;;;;;;;;;5007192;28;19998;-42
2023/04/11 13:49:43;;;;;;;;;;;;;;;;;;5006991;28;20402;-43
2023/04/11 13:52:09;;;;;;;;;;;;;;;;;;5006803;28;19913;-44
2023/04/11 13:54:36;;;;;;;;;;;;;;;;;;5006468;28;20330;-43
2023/04/11 13:57:06;;;;;;;;;;;;;;;;;;5004130;28;19906;-42
2023/04/11 13:59:32;;;;;;;;;;;;;;;;;;5007010;28;19912;-46
2023/04/11 14:01:58;;;;;;;;;;;;;;;;;;5006882;28;19909;-42
2023/04/11 14:04:24;;;;;;;;;;;;;;;;;;5006869;28;19915;-42
2023/04/11 14:06:52;;;;;;;;;;;;;;;;;;5006670;28;19909;-43
2023/04/11 14:09:18;;;;;;;;;;;;;;;;;;5006538;28;19917;-46
2023/04/11 14:11:44;;;;;;;;;;;;;;;;;;5006627;28;20343;-46
2023/04/11 14:14:10;;;;;;;;;;;;;;;;;;5006725;28;19917;-43
2023/04/11 14:16:38;;;;;;;;;;;;;;;;;;5006682;28;19925;-42
2023/04/11 14:19:04;;;;;;;;;;;;;;;;;;5007017;28;19936;-42
2023/04/11 14:21:30;;;;;;;;;;;;;;;;;;5006319;28;19909;-44
2023/04/11 14:23:56;;;;;;;;;;;;;;;;;;5006351;28;20392;-43
2023/04/11 14:26:22;;;;;;;;;;;;;;;;;;5006476;28;19905;-43
2023/04/11 14:28:48;;;;;;;;;;;;;;;;;;5006471;28;19970;-42
2023/04/11 14:31:14;;;;;;;;;;;;;;;;;;5006562;28;19909;-44
2023/04/11 14:33:40;;;;;;;;;;;;;;;;;;5006109;28;20377;-42
2023/04/11 14:36:06;;;;;;;;;;;;;;;;;;5006722;28;20648;-42
2023/04/11 14:38:32;;;;;;;;;;;;;;;;;;5006562;28;19905;-42
2023/04/11 14:40:58;;;;;;;;;;;;;;;;;;5006380;28;19912;-43
2023/04/11 14:43:24;;;;;;;;;;;;;;;;;;5006376;28;20459;-42
2023/04/11 14:45:50;;;;;;;;;;;;;;;;;;5006227;28;19909;-42
2023/04/11 14:48:15;;;;;;;;;;;;;;;;;;5006099;28;19905;-44
2023/04/11 14:50:41;;;;;;;;;;;;;;;;;;5006185;28;19912;-43
2023/04/11 14:53:08;;;;;;;;;;;;;;;;;;5005841;28;19906;-44
2023/04/11 14:55:34;;;;;;;;;;;;;;;;;;5006768;28;20431;-42
2023/04/11 14:58:00;;;;;;;;;;;;;;;;;;5005839;28;19906;-44
2023/04/11 15:00:26;;;;;;;;;;;;;;;;;;5005886;28;19909;-44
2023/04/11 15:02:52;;;;;;;;;;;;;;;;;;5005015;28;20300;-44
2023/04/11 15:05:18;;;;;;;;;;;;;;;;;;5006925;28;19947;-43
2023/04/11 15:07:44;;;;;;;;;;;;;;;;;;5005215;28;19913;-43
2023/04/11 15:10:10;;;;;;;;;;;;;;;;;;5004537;28;19909;-45
2023/04/11 15:12:36;;;;;;;;;;;;;;;;;;5006144;28;19906;-42
2023/04/11 15:15:03;;;;;;;;;;;;;;;;;;5005942;28;20303;-44
2023/04/11 15:17:29;;;;;;;;;;;;;;;;;;5005577;28;19909;-44
2023/04/11 15:19:56;;;;;;;;;;;;;;;;;;5005820;28;20369;-43
2023/04/11 15:22:22;;;;;;;;;;;;;;;;;;5005611;28;20320;-43
2023/04/11 15:24:47;;;;;;;;;;;;;;;;;;5006401;28;19906;-42
2023/04/11 15:27:14;;;;;;;;;;;;;;;;;;5006052;28;19945;-43
2023/04/11 15:29:40;;;;;;;;;;;;;;;;;;5005556;28;19963;-44
2023/04/11 15:32:06;;;;;;;;;;;;;;;;;;5005742;28;19913;-46
2023/04/11 15:34:32;;;;;;;;;;;;;;;;;;5005725;28;19914;-42
2023/04/11 15:36:58;;;;;;;;;;;;;;;;;;5005539;28;19912;-42
2023/04/11 15:39:26;;;;;;;;;;;;;;;;;;5005608;28;19952;-43
2023/04/11 15:41:51;;;;;;;;;;;;;;;;;;5006082;28;20009;-41
2023/04/11 15:44:17;;;;;;;;;;;;;;;;;;5006237;28;19901;-42
2023/04/11 15:46:44;;;;;;;;;;;;;;;;;;5005303;28;19912;-41
2023/04/11 15:49:11;;;;;;;;;;;;;;;;;;5005733;28;19956;-43
2023/04/11 15:51:37;;;;;;;;;;;;;;;;;;5006527;28;19935;-42
2023/04/11 15:54:03;;;;;;;;;;;;;;;;;;5009132;28;19945;-42
2023/04/11 15:56:30;;;;;;;;;;;;;;;;;;5009252;28;19913;-44
2023/04/11 15:58:56;;;;;;;;;;;;;;;;;;5008974;28;20360;-43
2023/04/11 16:01:22;;;;;;;;;;;;;;;;;;5009181;28;19906;-42
2023/04/11 16:03:50;;;;;;;;;;;;;;;;;;5009603;28;20126;-42
2023/04/11 16:06:17;;;;;;;;;;;;;;;;;;5010267;28;19936;-42
2023/04/11 16:08:43;;;;;;;;;;;;;;;;;;5008442;28;19913;-45
2023/04/11 16:11:09;;;;;;;;;;;;;;;;;;5009009;28;19915;-43
2023/04/11 16:13:35;;;;;;;;;;;;;;;;;;5008681;28;19916;-43
2023/04/11 16:16:01;;;;;;;;;;;;;;;;;;5008739;28;20445;-42
2023/04/11 16:18:26;;;;;;;;;;;;;;;;;;5008571;28;19943;-42
2023/04/11 16:20:52;;;;;;;;;;;;;;;;;;5008832;28;19917;-45
2023/04/11 16:23:18;;;;;;;;;;;;;;;;;;5009154;28;19905;-43
2023/04/11 16:25:44;;;;;;;;;;;;;;;;;;5008726;28;19910;-42
2023/04/11 16:28:10;;;;;;;;;;;;;;;;;;5008597;28;19940;-42
2023/04/11 16:30:36;;;;;;;;;;;;;;;;;;5008513;28;19948;-43
2023/04/11 16:33:02;;;;;;;;;;;;;;;;;;5008338;28;19905;-45
2023/04/11 16:35:28;;;;;;;;;;;;;;;;;;5008685;28;20146;-44
2023/04/11 16:37:54;;;;;;;;;;;;;;;;;;5008156;28;19909;-44
2023/04/11 16:40:19;;;;;;;;;;;;;;;;;;5007629;28;19953;-42
2023/04/11 16:42:45;;;;;;;;;;;;;;;;;;5008959;28;19905;-43
2023/04/11 16:45:11;;;;;;;;;;;;;;;;;;5008378;28;19979;-44
2023/04/11 16:47:38;;;;;;;;;;;;;;;;;;5008079;28;19909;-43
2023/04/11 16:50:04;;;;;;;;;;;;;;;;;;5008306;28;19910;-41
2023/04/11 16:52:30;;;;;;;;;;;;;;;;;;5007884;28;19909;-42
2023/04/11 16:54:56;;;;;;;;;;;;;;;;;;5006766;28;19917;-44
2023/04/11 16:57:22;;;;;;;;;;;;;;;;;;5007880;28;19905;-42
2023/04/11 16:59:48;;;;;;;;;;;;;;;;;;5007341;28;19913;-43
2023/04/11 17:02:14;;;;;;;;;;;;;;;;;;5007350;28;19921;-42
2023/04/11 17:04:40;;;;;;;;;;;;;;;;;;5006947;28;20363;-42
2023/04/11 17:07:06;;;;;;;;;;;;;;;;;;5008020;28;19956;-44
2023/04/11 17:09:32;;;;;;;;;;;;;;;;;;5009869;28;19953;-42
2023/04/11 17:11:59;;;;;;;;;;;;;;;;;;5009527;28;19988;-42
2023/04/11 17:14:25;;;;;;;;;;;;;;;;;;5008893;28;19952;-43
2023/04/11 17:16:51;;;;;;;;;;;;;;;;;;5006004;28;19996;-42
2023/04/11 17:19:16;;;;;;;;;;;;;;;;;;5013346;28;20036;-43
2023/04/11 17:21:42;;;;;;;;;;;;;;;;;;5004169;28;19956;-42
2023/04/11 17:24:08;;;;;;;;;;;;;;;;;;5003700;28;20015;-46
2023/04/11 17:26:34;;;;;;;;;;;;;;;;;;5020806;28;19913;-43
2023/04/11 17:29:00;;;;;;;;;;;;;;;;;;5007658;28;20388;-41
2023/04/11 17:31:27;;;;;;;;;;;;;;;;;;5007990;28;20458;-42
2023/04/11 17:33:54;;;;;;;;;;;;;;;;;;5005987;28;20420;-42
2023/04/11 17:36:20;;;;;;;;;;;;;;;;;;5007913;28;19928;-42
2023/04/11 17:38:47;;;;;;;;;;;;;;;;;;4994377;28;19913;-44
2023/04/11 17:41:13;;;;;;;;;;;;;;;;;;4986736;28;19906;-42
2023/04/11 17:43:39;;;;;;;;;;;;;;;;;;5006135;28;19916;-45
2023/04/11 17:46:06;;;;;;;;;;;;;;;;;;5006275;28;19914;-43
2023/04/11 17:48:33;;;;;;;;;;;;;;;;;;5007602;28;19909;-43
2023/04/11 17:50:58;;;;;;;;;;;;;;;;;;5005960;28;19909;-43
2023/04/11 17:53:26;;;;;;;;;;;;;;;;;;5005096;28;20371;-43
2023/04/11 17:55:52;;;;;;;;;;;;;;;;;;5005248;28;19968;-44
2023/04/11 17:58:18;;;;;;;;;;;;;;;;;;5003604;28;19913;-43
2023/04/11 18:00:46;;;;;;;;;;;;;;;;;;5001909;28;20040;-43
2023/04/11 18:03:12;;;;;;;;;;;;;;;;;;5003968;28;20007;-43
2023/04/11 18:05:38;;;;;;;;;;;;;;;;;;5003783;28;20005;-42
2023/04/11 18:08:04;;;;;;;;;;;;;;;;;;5002967;28;20004;-43
2023/04/11 18:10:31;;;;;;;;;;;;;;;;;;5004834;28;19917;-44
2023/04/11 18:12:56;;;;;;;;;;;;;;;;;;5003217;28;19917;-43
2023/04/11 18:15:22;;;;;;;;;;;;;;;;;;5003152;28;20291;-44
2023/04/11 18:17:48;;;;;;;;;;;;;;;;;;5004730;28;19909;-43
2023/04/11 18:20:15;;;;;;;;;;;;;;;;;;5001955;28;20041;-45
2023/04/11 18:22:40;;;;;;;;;;;;;;;;;;5005048;28;20296;-44
2023/04/11 18:25:06;;;;;;;;;;;;;;;;;;5003878;28;19917;-44
2023/04/11 18:27:32;;;;;;;;;;;;;;;;;;5005012;28;20129;-44
2023/04/11 18:29:58;;;;;;;;;;;;;;;;;;5004658;28;19918;-45
2023/04/11 18:32:24;;;;;;;;;;;;;;;;;;5003576;28;20312;-46
2023/04/11 18:34:50;;;;;;;;;;;;;;;;;;5001750;28;19944;-43
2023/04/11 18:37:16;;;;;;;;;;;;;;;;;;5001960;28;20454;-42
2023/04/11 18:39:42;;;;;;;;;;;;;;;;;;5004251;28;19916;-43
2023/04/11 18:42:08;;;;;;;;;;;;;;;;;;5003820;28;19914;-44
2023/04/11 18:44:34;;;;;;;;;;;;;;;;;;4994507;28;19937;-45
2023/04/11 18:47:00;;;;;;;;;;;;;;;;;;5002287;28;19919;-44
2023/04/11 18:49:26;;;;;;;;;;;;;;;;;;5004440;28;19913;-45
2023/04/11 18:51:53;;;;;;;;;;;;;;;;;;5004118;28;19909;-46
2023/04/11 18:54:19;;;;;;;;;;;;;;;;;;5004026;28;19964;-42
2023/04/11 18:56:46;;;;;;;;;;;;;;;;;;5004928;28;20359;-44
2023/04/11 18:59:12;;;;;;;;;;;;;;;;;;5004347;28;19909;-44
2023/04/11 19:01:38;;;;;;;;;;;;;;;;;;5005065;28;19912;-43
2023/04/11 19:04:03;;;;;;;;;;;;;;;;;;5004391;28;20369;-43
2023/04/11 19:06:29;;;;;;;;;;;;;;;;;;5005566;28;19909;-44
2023/04/11 19:08:55;;;;;;;;;;;;;;;;;;5004034;28;19917;-43
2023/04/11 19:11:21;;;;;;;;;;;;;;;;;;5004178;28;19960;-43
2023/04/11 19:13:47;;;;;;;;;;;;;;;;;;5003829;28;19968;-43
2023/04/11 19:16:14;;;;;;;;;;;;;;;;;;5002893;28;19921;-45
2023/04/11 19:18:40;;;;;;;;;;;;;;;;;;5004577;28;20008;-44
2023/04/11 19:21:06;;;;;;;;;;;;;;;;;;5004498;28;19996;-43
2023/04/11 19:23:32;;;;;;;;;;;;;;;;;;5005923;28;19912;-45
2023/04/11 19:25:59;;;;;;;;;;;;;;;;;;5004593;28;19913;-43
2023/04/11 19:28:25;;;;;;;;;;;;;;;;;;5008888;28;19920;-43
2023/04/11 19:30:51;;;;;;;;;;;;;;;;;;5007880;28;19913;-43
2023/04/11 19:33:17;;;;;;;;;;;;;;;;;;5008689;28;20335;-43
2023/04/11 19:35:44;;;;;;;;;;;;;;;;;;5006944;28;19975;-44
2023/04/11 19:38:10;;;;;;;;;;;;;;;;;;5008168;28;19913;-43
2023/04/11 19:40:36;;;;;;;;;;;;;;;;;;5007056;28;19996;-44
2023/04/11 19:43:02;;;;;;;;;;;;;;;;;;5006957;28;19920;-46
2023/04/11 19:45:28;;;;;;;;;;;;;;;;;;5008628;28;19919;-44
2023/04/11 19:47:54;;;;;;;;;;;;;;;;;;5008028;28;19909;-44
2023/04/11 19:50:21;;;;;;;;;;;;;;;;;;5007980;28;19913;-44
2023/04/11 19:52:47;;;;;;;;;;;;;;;;;;5007733;28;19913;-43
2023/04/11 19:55:13;;;;;;;;;;;;;;;;;;5007490;28;19967;-44
2023/04/11 19:57:42;;;;;;;;;;;;;;;;;;5007670;28;19913;-43
2023/04/11 20:00:15;;;;;;;;;;;;;;;;;;5007703;28;20031;-44
2023/04/11 20:02:45;;;;;;;;;;;;;;;;;;5008166;28;20091;-43
2023/04/11 20:05:10;;;;;;;;;;;;;;;;;;5007663;28;20241;-44
2023/04/11 20:07:38;;;;;;;;;;;;;;;;;;5007897;28;19953;-45
2023/04/11 20:10:04;;;;;;;;;;;;;;;;;;5007533;28;19909;-43
2023/04/11 20:12:30;;;;;;;;;;;;;;;;;;5008408;28;19917;-43
2023/04/11 20:14:57;;;;;;;;;;;;;;;;;;5007668;28;19917;-43
2023/04/11 20:17:23;;;;;;;;;;;;;;;;;;5008224;28;19956;-42
2023/04/11 20:19:50;;;;;;;;;;;;;;;;;;5007138;28;19975;-44
2023/04/11 20:22:17;;;;;;;;;;;;;;;;;;5007736;28;19918;-43
2023/04/11 20:24:45;;;;;;;;;;;;;;;;;;5007953;28;20233;-44
2023/04/11 20:27:11;;;;;;;;;;;;;;;;;;5007328;28;19910;-43
2023/04/11 20:29:37;;;;;;;;;;;;;;;;;;5006339;28;19909;-43
2023/04/11 20:32:03;;;;;;;;;;;;;;;;;;5006270;28;20004;-43
2023/04/11 20:34:29;;;;;;;;;;;;;;;;;;5007804;28;20309;-43
2023/04/11 20:36:55;;;;;;;;;;;;;;;;;;5005411;28;19963;-43
2023/04/11 20:39:21;;;;;;;;;;;;;;;;;;5007495;28;20361;-42
2023/04/11 20:41:48;;;;;;;;;;;;;;;;;;5007629;28;20292;-43
2023/04/11 20:44:17;;;;;;;;;;;;;;;;;;5007553;28;20287;-43
2023/04/11 20:46:43;;;;;;;;;;;;;;;;;;5007177;28;19909;-46
2023/04/11 20:49:09;;;;;;;;;;;;;;;;;;5006721;28;20415;-42
2023/04/11 20:51:36;;;;;;;;;;;;;;;;;;5004398;28;19909;-43
2023/04/11 20:54:03;;;;;;;;;;;;;;;;;;5007460;28;19916;-43
2023/04/11 20:56:34;;;;;;;;;;;;;;;;;;5000537;28;19921;-44
2023/04/11 20:59:00;;;;;;;;;;;;;;;;;;4987543;28;19948;-42
2023/04/11 21:01:31;;;;;;;;;;;;;;;;;;4987597;28;19906;-46
2023/04/11 21:03:57;;;;;;;;;;;;;;;;;;4993128;28;20280;-46
2023/04/11 21:06:22;;;;;;;;;;;;;;;;;;5006977;28;19928;-43
2023/04/11 21:08:48;;;;;;;;;;;;;;;;;;5006682;28;19917;-43
2023/04/11 21:11:14;;;;;;;;;;;;;;;;;;5006812;28;19905;-44
2023/04/11 21:13:40;;;;;;;;;;;;;;;;;;5006599;28;19909;-43
2023/04/11 21:16:06;;;;;;;;;;;;;;;;;;5006322;28;20530;-43
2023/04/11 21:18:33;;;;;;;;;;;;;;;;;;5007024;28;19914;-44
2023/04/11 21:20:59;;;;;;;;;;;;;;;;;;5006777;28;19920;-42
2023/04/11 21:23:25;;;;;;;;;;;;;;;;;;5006760;28;19906;-45
2023/04/11 21:25:51;;;;;;;;;;;;;;;;;;5004918;28;19906;-43
2023/04/11 21:28:17;;;;;;;;;;;;;;;;;;5006103;28;19936;-44
2023/04/11 21:30:42;;;;;;;;;;;;;;;;;;5006753;28;19920;-43
2023/04/11 21:33:09;;;;;;;;;;;;;;;;;;5006227;28;19909;-43
2023/04/11 21:35:35;;;;;;;;;;;;;;;;;;5004697;28;20083;-45
2023/04/11 21:38:01;;;;;;;;;;;;;;;;;;5006588;28;19909;-43
2023/04/11 21:40:27;;;;;;;;;;;;;;;;;;5006276;28;20410;-43
2023/04/11 21:42:54;;;;;;;;;;;;;;;;;;5005520;28;19920;-46